Time;durP1;ratioP1;P1;durP2;ratioP2;P2;SDS_P1;SDS_P2;PMS_P1;PMS_P2;Temp;Humidity;BMP_temperature;BMP_pressure;BME280_temperature;BME280_humidity;BME280_pressure;Samples;Min_cycle;Max_cycle;Signal;HPM_P1;HPM_P2
2022/08/16 00:01:24;;;;;;;7.80;7.10;;;17.60;99.90;;;;;;5132744;27;20599;-51
2022/08/16 00:03:55;;;;;;;8.63;6.80;;;17.70;99.90;;;;;;5120775;27;20204;-52
2022/08/16 00:06:26;;;;;;;8.27;6.88;;;17.60;99.90;;;;;;5112442;28;20263;-51
2022/08/16 00:08:54;;;;;;;7.40;6.80;;;17.60;99.90;;;;;;5115831;27;20212;-52
2022/08/16 00:11:22;;;;;;;8.05;7.28;;;17.50;99.90;;;;;;5129493;27;20301;-51
2022/08/16 00:13:51;;;;;;;7.18;6.57;;;17.50;99.90;;;;;;5118722;27;20203;-51
2022/08/16 00:16:23;;;;;;;7.70;7.00;;;17.50;99.90;;;;;;5132353;27;20223;-51
2022/08/16 00:19:11;;;;;;;7.40;6.78;;;17.50;99.90;;;;;;5128277;27;21018;-51
2022/08/16 00:21:43;;;;;;;8.75;6.60;;;17.40;99.90;;;;;;5121615;27;20251;-51
2022/08/16 00:24:12;;;;;;;8.80;7.00;;;17.40;99.90;;;;;;5127993;27;20198;-52
2022/08/16 00:26:58;;;;;;;8.05;7.30;;;17.40;99.90;;;;;;5132349;27;20203;-52
2022/08/16 00:29:26;;;;;;;10.93;7.47;;;17.40;99.90;;;;;;5118641;27;20227;-52
2022/08/16 00:31:57;;;;;;;7.50;6.80;;;17.40;99.90;;;;;;5132226;27;20233;-51
2022/08/16 00:34:33;;;;;;;8.55;7.40;;;17.40;99.90;;;;;;5118172;27;20206;-52
2022/08/16 00:37:22;;;;;;;7.53;6.78;;;17.40;99.90;;;;;;5132665;27;20218;-52
2022/08/16 00:39:52;;;;;;;8.40;7.60;;;17.30;99.90;;;;;;5117744;27;20278;-52
2022/08/16 00:42:27;;;;;;;8.00;7.22;;;17.30;99.90;;;;;;5132111;27;20259;-52
2022/08/16 00:45:05;;;;;;;8.40;7.25;;;17.20;99.90;;;;;;5131689;27;20203;-52
2022/08/16 00:47:43;;;;;;;7.22;6.57;;;17.20;99.90;;;;;;5131967;27;20199;-51
2022/08/16 00:50:19;;;;;;;9.07;6.88;;;17.10;99.90;;;;;;5132320;27;20607;-51
2022/08/16 00:52:48;;;;;;;9.13;7.53;;;17.10;99.90;;;;;;5132243;27;20309;-50
2022/08/16 00:55:21;;;;;;;8.70;7.20;;;17.10;99.90;;;;;;5107091;27;20268;-52
2022/08/16 00:57:52;;;;;;;7.95;6.57;;;17.10;99.90;;;;;;5132025;27;20218;-52
2022/08/16 01:00:28;;;;;;;7.80;6.82;;;17.10;99.90;;;;;;5131810;27;20233;-52
2022/08/16 01:02:59;;;;;;;7.60;6.80;;;17.10;99.90;;;;;;5132067;27;20206;-52
2022/08/16 01:05:28;;;;;;;7.40;6.40;;;17.00;99.90;;;;;;5131754;27;20210;-52
2022/08/16 01:07:58;;;;;;;7.85;7.15;;;17.10;99.90;;;;;;5132124;27;20635;-51
2022/08/16 01:10:29;;;;;;;7.28;6.57;;;17.00;99.90;;;;;;5131438;27;20217;-51
2022/08/16 01:13:04;;;;;;;7.88;6.78;;;17.00;99.90;;;;;;5119792;27;20291;-51
2022/08/16 01:15:34;;;;;;;7.57;6.88;;;16.90;99.90;;;;;;5129997;27;20259;-51
2022/08/16 01:18:04;;;;;;;7.57;6.78;;;16.80;99.90;;;;;;5131723;27;20226;-52
2022/08/16 01:20:37;;;;;;;7.32;6.63;;;16.80;99.90;;;;;;5129282;27;20275;-51
2022/08/16 01:23:16;;;;;;;7.93;7.22;;;16.80;99.90;;;;;;5131548;27;20209;-52
2022/08/16 01:25:49;;;;;;;8.02;6.85;;;16.80;99.90;;;;;;5131388;27;20259;-52
2022/08/16 01:28:28;;;;;;;8.27;7.45;;;16.80;99.90;;;;;;5121768;27;20211;-52
2022/08/16 01:30:59;;;;;;;7.88;7.03;;;16.80;99.90;;;;;;5117957;27;20721;-51
2022/08/16 01:33:27;;;;;;;7.90;7.13;;;16.70;99.90;;;;;;5121609;27;20207;-51
2022/08/16 01:36:06;;;;;;;6.78;6.05;;;16.70;99.90;;;;;;5130399;27;20195;-51
2022/08/16 01:38:41;;;;;;;7.40;6.70;;;16.70;99.90;;;;;;5131178;27;20222;-51
2022/08/16 01:41:24;;;;;;;7.53;6.80;;;16.70;99.90;;;;;;5131170;27;20237;-51
2022/08/16 01:43:56;;;;;;;6.93;6.18;;;16.70;99.90;;;;;;5130333;27;20194;-51
2022/08/16 01:46:32;;;;;;;8.45;7.03;;;16.60;99.90;;;;;;5130352;27;20217;-51
2022/08/16 01:49:11;;;;;;;9.13;7.10;;;16.60;99.90;;;;;;5130589;27;20915;-51
2022/08/16 01:51:43;;;;;;;7.50;6.78;;;16.50;99.90;;;;;;5130717;27;20596;-51
2022/08/16 01:54:12;;;;;;;8.60;6.90;;;16.40;99.90;;;;;;5130467;27;20206;-51
2022/08/16 01:56:44;;;;;;;8.35;6.38;;;16.40;99.90;;;;;;5117268;27;20235;-51
2022/08/16 01:59:14;;;;;;;9.88;7.40;;;16.40;99.90;;;;;;5131385;27;20203;-52
2022/08/16 02:01:45;;;;;;;8.38;6.80;;;16.40;99.90;;;;;;5130206;27;20227;-51
2022/08/16 02:04:21;;;;;;;8.02;7.18;;;16.40;99.90;;;;;;5130700;27;20202;-51
2022/08/16 02:07:09;;;;;;;7.30;6.60;;;16.40;99.90;;;;;;5108651;27;20281;-51
2022/08/16 02:09:39;;;;;;;8.60;6.45;;;16.30;99.90;;;;;;5130643;27;20233;-51
2022/08/16 02:12:09;;;;;;;7.53;6.82;;;16.30;99.90;;;;;;5126490;27;20882;-52
2022/08/16 02:14:59;;;;;;;7.75;6.82;;;16.30;99.90;;;;;;5124117;27;20664;-51
2022/08/16 02:17:28;;;;;;;9.65;7.30;;;16.30;99.90;;;;;;5102776;27;20225;-51
2022/08/16 02:19:56;;;;;;;8.38;7.18;;;16.30;99.90;;;;;;5128157;27;20297;-51
2022/08/16 02:22:28;;;;;;;8.05;7.28;;;16.30;99.90;;;;;;5130492;27;20226;-52
2022/08/16 02:25:09;;;;;;;8.50;7.55;;;16.30;99.90;;;;;;5129909;27;20217;-52
2022/08/16 02:27:40;;;;;;;8.35;7.55;;;16.20;99.90;;;;;;5127823;27;20199;-52
2022/08/16 02:30:13;;;;;;;8.38;7.50;;;16.20;99.90;;;;;;5112077;27;20208;-51
2022/08/16 02:33:02;;;;;;;7.63;6.82;;;16.10;99.90;;;;;;5112642;27;20382;-52
2022/08/16 02:35:31;;;;;;;8.43;7.55;;;16.10;99.90;;;;;;5124361;27;20211;-51
2022/08/16 02:38:00;;;;;;;11.07;7.60;;;16.10;99.90;;;;;;5130869;27;20211;-51
2022/08/16 02:40:36;;;;;;;10.10;7.28;;;16.10;99.90;;;;;;5129773;27;20206;-51
2022/08/16 02:43:06;;;;;;;8.35;7.32;;;16.10;99.90;;;;;;5130387;27;20210;-52
2022/08/16 02:45:35;;;;;;;9.20;7.60;;;16.10;99.90;;;;;;5130114;27;20203;-52
2022/08/16 02:48:04;;;;;;;9.13;7.00;;;16.10;99.90;;;;;;5129682;27;20283;-52
2022/08/16 02:50:52;;;;;;;8.05;7.22;;;16.00;99.90;;;;;;5130597;28;20258;-52
2022/08/16 02:53:35;;;;;;;8.32;7.53;;;16.00;99.90;;;;;;5129810;28;20588;-52
2022/08/16 02:56:05;;;;;;;8.50;7.43;;;16.00;99.90;;;;;;5116423;28;20204;-52
2022/08/16 02:58:38;;;;;;;9.13;7.68;;;16.00;99.90;;;;;;5130179;28;20669;-52
2022/08/16 03:01:08;;;;;;;9.43;8.00;;;16.00;99.90;;;;;;5130451;28;20270;-52
2022/08/16 03:03:42;;;;;;;9.00;8.00;;;16.00;99.90;;;;;;5130155;28;20202;-52
2022/08/16 03:06:30;;;;;;;9.85;7.30;;;16.10;99.90;;;;;;5130433;28;20295;-52
2022/08/16 03:09:10;;;;;;;8.70;7.82;;;16.00;99.90;;;;;;5129721;28;20218;-52
2022/08/16 03:11:42;;;;;;;8.65;6.85;;;16.00;99.90;;;;;;5129838;28;20591;-52
2022/08/16 03:14:11;;;;;;;8.00;7.30;;;16.00;99.90;;;;;;5116315;28;20203;-52
2022/08/16 03:16:40;;;;;;;8.43;7.22;;;16.00;99.90;;;;;;5129888;28;20306;-52
2022/08/16 03:19:27;;;;;;;8.70;7.60;;;16.00;99.90;;;;;;5127589;28;20636;-52
2022/08/16 03:22:16;;;;;;;8.80;7.90;;;15.90;99.90;;;;;;5130029;28;20309;-52
2022/08/16 03:24:56;;;;;;;8.95;7.70;;;16.00;99.90;;;;;;5129285;28;20214;-52
2022/08/16 03:27:24;;;;;;;9.38;7.35;;;15.90;99.90;;;;;;5129234;28;20202;-52
2022/08/16 03:30:01;;;;;;;9.85;8.25;;;15.90;99.90;;;;;;5112011;28;20626;-52
2022/08/16 03:32:44;;;;;;;9.88;7.65;;;15.90;99.90;;;;;;5124940;28;20219;-53
2022/08/16 03:35:15;;;;;;;10.73;8.67;;;15.80;99.90;;;;;;5122571;28;20203;-52
2022/08/16 03:37:45;;;;;;;10.82;7.97;;;15.80;99.90;;;;;;5129576;28;20287;-52
2022/08/16 03:40:30;;;;;;;10.52;7.93;;;15.80;99.90;;;;;;5129840;28;20199;-51
2022/08/16 03:43:01;;;;;;;9.10;8.20;;;15.80;99.90;;;;;;5129919;28;20230;-52
2022/08/16 03:45:51;;;;;;;9.53;7.67;;;15.80;99.90;;;;;;5129754;28;20207;-52
2022/08/16 03:48:22;;;;;;;8.30;7.33;;;15.80;99.90;;;;;;5129362;28;20203;-52
2022/08/16 03:51:11;;;;;;;9.10;8.20;;;15.70;99.90;;;;;;5129689;28;20223;-51
2022/08/16 03:53:40;;;;;;;10.63;8.40;;;15.70;99.90;;;;;;5128990;28;20272;-52
2022/08/16 03:56:09;;;;;;;9.10;8.00;;;15.70;99.90;;;;;;5115705;28;20614;-52
2022/08/16 03:58:49;;;;;;;9.82;7.78;;;15.70;99.90;;;;;;5132425;27;20313;-52
2022/08/16 04:01:21;;;;;;;8.43;7.63;;;15.70;99.90;;;;;;5132943;27;20329;-52
2022/08/16 04:03:50;;;;;;;10.10;7.70;;;15.70;99.90;;;;;;5133667;27;20706;-52
2022/08/16 04:06:20;;;;;;;8.57;6.85;;;15.70;99.90;;;;;;5132854;27;20675;-52
2022/08/16 04:08:48;;;;;;;8.00;7.20;;;15.60;99.90;;;;;;5132988;27;20210;-52
2022/08/16 04:11:18;;;;;;;12.30;7.78;;;15.60;99.90;;;;;;5132786;27;20227;-51
2022/08/16 04:13:50;;;;;;;8.90;7.85;;;15.60;99.90;;;;;;5118679;27;20199;-52
2022/08/16 04:16:36;;;;;;;9.27;8.37;;;15.60;99.90;;;;;;5132901;27;20241;-51
2022/08/16 04:19:04;;;;;;;10.30;7.33;;;15.60;99.90;;;;;;5130604;27;20636;-51
2022/08/16 04:21:37;;;;;;;8.80;7.78;;;15.60;99.90;;;;;;5132848;27;20223;-51
2022/08/16 04:24:14;;;;;;;10.13;8.32;;;15.60;99.90;;;;;;5131896;27;20280;-51
2022/08/16 04:26:43;;;;;;;9.07;7.10;;;15.60;99.90;;;;;;5132578;27;20203;-52
2022/08/16 04:29:14;;;;;;;11.37;8.23;;;15.60;99.90;;;;;;5118657;27;20199;-52
2022/08/16 04:31:54;;;;;;;9.00;8.10;;;15.60;99.90;;;;;;5125566;27;20596;-52
2022/08/16 04:34:26;;;;;;;10.63;7.97;;;15.60;99.90;;;;;;5120659;27;20268;-52
2022/08/16 04:36:54;;;;;;;9.00;8.10;;;15.60;99.90;;;;;;5132516;27;20248;-51
2022/08/16 04:39:24;;;;;;;9.45;8.55;;;15.60;99.90;;;;;;5132072;27;20222;-52
2022/08/16 04:42:12;;;;;;;9.43;8.48;;;15.70;99.90;;;;;;5132517;27;20746;-53
2022/08/16 04:44:40;;;;;;;9.60;8.52;;;15.70;99.90;;;;;;5103878;27;20683;-52
2022/08/16 04:47:30;;;;;;;12.80;9.48;;;15.80;99.90;;;;;;5132061;27;20207;-52
2022/08/16 04:50:03;;;;;;;9.95;8.88;;;16.40;99.90;;;;;;5132627;27;20194;-52
2022/08/16 04:52:32;;;;;;;11.98;8.27;;;17.00;99.90;;;;;;5132361;27;20280;-52
2022/08/16 04:55:06;;;;;;;8.15;7.38;;;17.40;99.90;;;;;;5124439;27;20322;-52
2022/08/16 04:57:35;;;;;;;7.97;7.18;;;17.90;99.90;;;;;;5126609;27;20251;-52
2022/08/16 05:00:08;;;;;;;7.55;6.82;;;18.20;99.90;;;;;;5131992;27;20246;-52
2022/08/16 05:02:58;;;;;;;9.57;7.57;;;18.40;99.90;;;;;;5132453;27;20301;-52
2022/08/16 05:05:37;;;;;;;8.25;7.45;;;18.80;99.90;;;;;;5131824;27;20819;-52
2022/08/16 05:08:23;;;;;;;8.82;8.02;;;19.10;99.90;;;;;;5126620;27;20215;-52
2022/08/16 05:10:58;;;;;;;8.48;7.72;;;19.40;99.90;;;;;;5131310;27;20240;-51
2022/08/16 05:13:30;;;;;;;8.95;7.75;;;19.70;99.90;;;;;;5117363;27;20208;-52
2022/08/16 05:16:14;;;;;;;11.02;8.25;;;19.90;99.90;;;;;;5132200;27;20199;-51
2022/08/16 05:18:51;;;;;;;7.30;6.70;;;20.20;99.90;;;;;;5129698;27;20222;-52
2022/08/16 05:21:19;;;;;;;7.32;6.63;;;20.50;99.90;;;;;;5131365;27;20711;-51
2022/08/16 05:23:49;;;;;;;9.13;7.43;;;20.70;99.90;;;;;;5130291;27;20202;-52
2022/08/16 05:26:23;;;;;;;7.80;6.90;;;20.90;99.90;;;;;;5131137;27;20207;-51
2022/08/16 05:28:55;;;;;;;7.43;6.78;;;21.30;99.90;;;;;;5119898;27;20231;-52
2022/08/16 05:31:24;;;;;;;7.57;6.85;;;21.50;99.90;;;;;;5131684;27;20230;-52
2022/08/16 05:33:59;;;;;;;7.13;6.43;;;21.70;99.90;;;;;;5119221;27;20291;-52
2022/08/16 05:36:30;;;;;;;8.43;7.07;;;21.70;99.90;;;;;;5131518;27;20207;-52
2022/08/16 05:39:04;;;;;;;8.68;7.03;;;21.40;99.90;;;;;;5131152;27;20215;-51
2022/08/16 05:41:32;;;;;;;8.30;7.50;;;21.20;99.90;;;;;;5114057;27;20339;-52
2022/08/16 05:44:13;;;;;;;8.73;7.78;;;21.10;99.90;;;;;;5111798;28;20203;-51
2022/08/16 05:46:53;;;;;;;9.68;8.68;;;20.90;99.90;;;;;;5108773;28;20217;-52
2022/08/16 05:49:23;;;;;;;12.18;9.30;;;20.60;99.90;;;;;;5104519;27;20213;-52
2022/08/16 05:51:53;;;;;;;11.25;9.68;;;20.50;99.90;;;;;;5100466;28;20227;-52
2022/08/16 05:54:24;;;;;;;9.95;8.95;;;20.40;99.90;;;;;;5100331;28;20218;-52
2022/08/16 05:56:53;;;;;;;13.52;10.00;;;20.10;99.90;;;;;;5110264;28;20227;-52
2022/08/16 05:59:23;;;;;;;9.77;8.77;;;20.00;99.90;;;;;;5109080;28;20234;-52
2022/08/16 06:01:53;;;;;;;11.30;10.13;;;19.80;99.90;;;;;;5109238;28;20301;-51
2022/08/16 06:04:24;;;;;;;11.68;9.52;;;19.90;99.90;;;;;;5110483;28;20211;-51
2022/08/16 06:07:05;;;;;;;11.20;9.80;;;20.10;99.90;;;;;;5110619;28;20206;-52
2022/08/16 06:09:51;;;;;;;11.45;10.32;;;20.10;99.90;;;;;;5102926;28;20260;-52
2022/08/16 06:12:19;;;;;;;12.80;11.57;;;20.00;99.90;;;;;;5110390;28;20219;-52
2022/08/16 06:14:57;;;;;;;12.00;10.80;;;20.10;99.90;;;;;;5109908;28;20222;-52
2022/08/16 06:17:26;;;;;;;13.45;10.90;;;20.40;99.90;;;;;;5110219;28;20200;-52
2022/08/16 06:20:16;;;;;;;12.68;10.82;;;20.90;99.90;;;;;;5110059;28;20235;-52
2022/08/16 06:22:54;;;;;;;12.55;11.35;;;21.60;99.90;;;;;;5110289;28;20260;-51
2022/08/16 06:25:32;;;;;;;11.10;9.98;;;22.20;99.90;;;;;;5109891;28;20253;-52
2022/08/16 06:28:07;;;;;;;11.10;10.00;;;22.50;99.90;;;;;;5110399;28;20222;-52
2022/08/16 06:30:38;;;;;;;11.20;10.23;;;22.90;99.90;;;;;;5109789;28;20207;-53
2022/08/16 06:33:12;;;;;;;12.05;10.93;;;23.20;99.90;;;;;;5102560;28;20207;-52
2022/08/16 06:35:51;;;;;;;11.38;10.35;;;23.60;99.90;;;;;;5104556;28;20276;-52
2022/08/16 06:38:26;;;;;;;11.82;10.65;;;23.80;99.90;;;;;;5110311;28;20330;-52
2022/08/16 06:41:02;;;;;;;12.02;10.90;;;24.00;99.90;;;;;;5109953;28;20231;-51
2022/08/16 06:43:31;;;;;;;12.10;10.98;;;24.30;99.90;;;;;;5109739;28;20207;-52
2022/08/16 06:46:00;;;;;;;12.35;11.02;;;24.30;99.90;;;;;;5103110;28;20292;-51
2022/08/16 06:48:31;;;;;;;11.88;10.77;;;24.40;99.90;;;;;;5106539;28;20577;-52
2022/08/16 06:51:03;;;;;;;11.63;9.90;;;24.50;99.90;;;;;;5109310;28;20248;-52
2022/08/16 06:53:34;;;;;;;12.27;11.18;;;24.60;99.90;;;;;;5108499;28;20210;-52
2022/08/16 06:56:05;;;;;;;11.55;10.43;;;24.70;99.90;;;;;;5109673;28;20594;-52
2022/08/16 06:58:51;;;;;;;12.40;11.10;;;25.10;99.90;;;;;;5109230;28;20235;-52
2022/08/16 07:01:19;;;;;;;10.10;9.10;;;25.10;99.90;;;;;;5109159;28;20650;-52
2022/08/16 07:04:08;;;;;;;12.23;11.02;;;25.20;99.90;;;;;;5109460;28;20295;-52
2022/08/16 07:06:41;;;;;;;10.45;9.45;;;25.30;99.90;;;;;;5109288;28;20294;-53
2022/08/16 07:09:11;;;;;;;11.18;10.15;;;25.30;99.90;;;;;;5108601;28;20218;-52
2022/08/16 07:11:40;;;;;;;11.80;10.43;;;25.40;99.90;;;;;;5108493;28;20223;-52
2022/08/16 07:14:18;;;;;;;10.98;9.95;;;25.50;99.90;;;;;;5108506;28;20215;-51
2022/08/16 07:16:54;;;;;;;16.75;10.68;;;25.70;99.90;;;;;;5109015;28;20214;-51
2022/08/16 07:19:26;;;;;;;11.80;10.57;;;25.70;99.90;;;;;;5109102;28;20208;-51
2022/08/16 07:22:16;;;;;;;10.95;9.85;;;25.90;99.90;;;;;;5109496;28;20263;-52
2022/08/16 07:25:05;;;;;;;10.52;9.60;;;25.90;99.90;;;;;;5109220;28;20661;-52
2022/08/16 07:27:33;;;;;;;11.63;10.40;;;26.10;99.90;;;;;;5095334;28;20203;-53
2022/08/16 07:30:07;;;;;;;10.50;9.45;;;26.30;99.90;;;;;;5109823;28;20231;-52
2022/08/16 07:32:56;;;;;;;11.02;10.02;;;26.30;99.90;;;;;;5106053;28;20295;-53
2022/08/16 07:35:24;;;;;;;9.05;8.25;;;26.50;99.90;;;;;;5107766;28;20204;-52
2022/08/16 07:37:54;;;;;;;10.27;9.27;;;26.50;99.90;;;;;;5113757;28;20260;-52
2022/08/16 07:40:22;;;;;;;10.90;9.93;;;26.60;99.90;;;;;;5112727;28;20972;-52
2022/08/16 07:43:10;;;;;;;11.15;9.75;;;27.00;99.90;;;;;;5089861;28;20239;-53
2022/08/16 07:45:38;;;;;;;12.48;9.98;;;26.70;99.90;;;;;;5099726;28;20637;-53
2022/08/16 07:48:10;;;;;;;11.20;9.45;;;26.50;99.90;;;;;;5112935;28;20207;-53
2022/08/16 07:50:40;;;;;;;10.85;8.70;;;26.50;99.90;;;;;;5112678;28;20642;-52
2022/08/16 07:53:26;;;;;;;11.73;10.60;;;26.70;99.90;;;;;;5112374;28;20284;-52
2022/08/16 07:55:56;;;;;;;10.95;9.60;;;26.80;99.90;;;;;;5111997;28;20668;-53
2022/08/16 07:58:24;;;;;;;10.82;9.73;;;27.00;99.90;;;;;;5112653;28;20208;-53
2022/08/16 08:01:04;;;;;;;10.20;9.35;;;26.90;99.90;;;;;;5112663;28;20263;-53
2022/08/16 08:03:38;;;;;;;10.23;9.18;;;26.90;99.90;;;;;;5110571;28;20783;-52
2022/08/16 08:06:12;;;;;;;8.95;8.05;;;26.80;99.90;;;;;;5111784;28;20203;-53
2022/08/16 08:08:43;;;;;;;10.02;9.02;;;26.60;99.90;;;;;;5113196;28;20211;-52
2022/08/16 08:11:19;;;;;;;11.32;9.32;;;26.50;99.90;;;;;;5112887;28;20280;-52
2022/08/16 08:13:49;;;;;;;10.18;9.27;;;26.40;99.90;;;;;;5110425;28;20285;-53
2022/08/16 08:16:20;;;;;;;10.20;8.93;;;26.40;99.90;;;;;;5111957;28;20260;-52
2022/08/16 08:18:48;;;;;;;10.93;9.60;;;26.30;99.90;;;;;;5111732;28;20719;-52
2022/08/16 08:21:24;;;;;;;10.18;9.07;;;26.20;99.90;;;;;;5111527;28;20284;-52
2022/08/16 08:23:56;;;;;;;10.98;9.77;;;26.00;99.90;;;;;;5111387;28;20291;-53
2022/08/16 08:26:25;;;;;;;9.38;8.48;;;26.10;99.90;;;;;;5112276;28;20203;-53
2022/08/16 08:28:55;;;;;;;10.30;7.55;;;26.10;99.90;;;;;;5107824;27;20287;-50
2022/08/16 08:31:28;;;;;;;9.38;8.13;;;26.10;99.90;;;;;;5096856;28;20220;-52
2022/08/16 08:33:58;;;;;;;10.88;8.45;;;26.10;99.90;;;;;;5108330;28;20212;-52
2022/08/16 08:36:29;;;;;;;12.10;8.90;;;26.30;99.90;;;;;;5111907;28;20203;-52
2022/08/16 08:39:02;;;;;;;10.20;8.98;;;26.40;99.90;;;;;;5109176;28;20220;-52
2022/08/16 08:41:40;;;;;;;9.00;7.85;;;26.50;99.90;;;;;;5111708;28;20235;-52
2022/08/16 08:44:09;;;;;;;8.85;7.90;;;26.60;99.90;;;;;;5110309;28;20235;-53
2022/08/16 08:46:57;;;;;;;7.97;7.18;;;26.60;99.90;;;;;;5111888;28;20207;-53
2022/08/16 08:49:27;;;;;;;9.93;8.43;;;26.60;99.90;;;;;;5110696;28;20204;-52
2022/08/16 08:52:14;;;;;;;10.02;8.88;;;26.50;99.90;;;;;;5111783;28;20303;-52
2022/08/16 08:55:05;;;;;;;10.18;8.75;;;26.50;99.90;;;;;;5110999;28;20299;-52
2022/08/16 08:57:38;;;;;;;9.65;7.63;;;26.60;99.90;;;;;;5111645;28;20207;-53
2022/08/16 09:00:09;;;;;;;10.07;9.00;;;26.60;99.90;;;;;;5110913;28;20269;-52
2022/08/16 09:02:42;;;;;;;9.13;8.23;;;26.70;99.90;;;;;;5109598;28;20837;-53
2022/08/16 09:05:12;;;;;;;8.30;7.50;;;26.60;99.90;;;;;;5108363;28;20212;-53
2022/08/16 09:07:43;;;;;;;11.10;8.85;;;26.70;99.90;;;;;;5111147;28;20624;-53
2022/08/16 09:10:29;;;;;;;9.88;7.35;;;26.50;99.90;;;;;;5110271;28;20227;-53
2022/08/16 09:12:57;;;;;;;8.90;8.05;;;26.50;99.90;;;;;;5111313;28;20706;-52
2022/08/16 09:15:27;;;;;;;9.75;8.77;;;26.50;99.90;;;;;;5111248;28;20200;-53
2022/08/16 09:18:01;;;;;;;8.77;7.53;;;26.60;99.90;;;;;;5111070;28;20248;-52
2022/08/16 09:20:51;;;;;;;7.90;7.20;;;26.60;99.90;;;;;;5111704;28;20318;-52
2022/08/16 09:23:28;;;;;;;9.10;8.05;;;26.70;99.90;;;;;;5111875;28;20689;-52
2022/08/16 09:25:57;;;;;;;11.13;8.98;;;26.70;99.90;;;;;;5111304;28;20208;-52
2022/08/16 09:28:27;;;;;;;10.05;8.18;;;26.70;99.90;;;;;;5111229;28;20208;-53
2022/08/16 09:31:16;;;;;;;9.77;8.48;;;26.60;99.90;;;;;;5097944;28;20310;-53
2022/08/16 09:33:45;;;;;;;8.43;7.65;;;26.60;99.90;;;;;;5098512;28;20204;-53
2022/08/16 09:36:19;;;;;;;8.38;7.57;;;26.50;99.90;;;;;;5111079;28;20207;-52
2022/08/16 09:39:00;;;;;;;6.35;5.82;;;26.60;99.90;;;;;;5110715;28;20290;-52
2022/08/16 09:41:31;;;;;;;6.00;5.38;;;26.70;99.90;;;;;;5110756;28;20231;-53
2022/08/16 09:44:02;;;;;;;7.80;6.32;;;26.80;99.90;;;;;;5109360;28;20192;-53
2022/08/16 09:46:51;;;;;;;7.05;6.28;;;26.70;99.90;;;;;;5116029;28;20218;-52
2022/08/16 09:49:26;;;;;;;7.10;6.40;;;26.80;99.90;;;;;;5097262;28;20680;-52
2022/08/16 09:52:04;;;;;;;9.18;6.05;;;26.80;99.90;;;;;;5097288;28;20215;-51
2022/08/16 09:54:36;;;;;;;6.78;6.18;;;26.90;99.90;;;;;;5110177;28;20669;-52
2022/08/16 09:57:07;;;;;;;7.00;6.20;;;26.80;99.90;;;;;;5094384;28;20280;-51
2022/08/16 09:59:39;;;;;;;6.20;5.60;;;26.80;99.90;;;;;;5110054;28;20656;-51
2022/08/16 10:02:09;;;;;;;5.93;5.20;;;26.80;99.90;;;;;;5111117;28;20231;-53
2022/08/16 10:04:56;;;;;;;7.95;6.18;;;26.90;99.90;;;;;;5110159;28;20238;-52
2022/08/16 10:07:24;;;;;;;6.47;5.88;;;26.90;99.90;;;;;;5110088;28;20254;-53
2022/08/16 10:10:05;;;;;;;5.68;5.13;;;26.90;99.90;;;;;;5110319;28;20646;-52
2022/08/16 10:15:26;;;;;;;6.18;5.57;;;27.00;99.90;;;;;;5108926;28;20207;-53
2022/08/16 10:17:58;;;;;;;5.25;4.70;;;27.00;99.90;;;;;;5110354;28;20740;-53
2022/08/16 10:20:48;;;;;;;5.78;4.80;;;27.10;99.90;;;;;;5105651;28;20749;-52
2022/08/16 10:23:16;;;;;;;5.38;4.72;;;27.20;99.90;;;;;;5101817;27;20232;-51
2022/08/16 10:25:47;;;;;;;5.57;5.05;;;27.20;99.90;;;;;;5108060;28;20249;-52
2022/08/16 10:28:37;;;;;;;5.35;4.85;;;27.10;99.90;;;;;;5110349;28;20306;-52
2022/08/16 10:31:10;;;;;;;5.70;4.97;;;27.00;99.90;;;;;;5096088;28;20965;-52
2022/08/16 10:33:44;;;;;;;6.10;4.53;;;27.10;99.90;;;;;;5097839;28;20212;-53
2022/08/16 10:36:13;;;;;;;5.60;4.70;;;27.20;99.90;;;;;;5108792;28;20239;-53
2022/08/16 10:39:01;;;;;;;5.28;4.05;;;27.30;99.90;;;;;;5109923;28;20207;-52
2022/08/16 10:41:31;;;;;;;5.03;4.53;;;27.30;99.90;;;;;;5109414;28;20231;-53
2022/08/16 10:44:01;;;;;;;5.05;4.63;;;27.40;99.90;;;;;;5109664;28;20253;-53
2022/08/16 10:46:29;;;;;;;3.90;3.50;;;27.40;99.90;;;;;;5102746;28;20211;-52
2022/08/16 10:49:09;;;;;;;4.28;3.88;;;27.30;99.90;;;;;;5095441;28;20735;-52
2022/08/16 10:51:38;;;;;;;4.78;4.32;;;27.30;99.90;;;;;;5107336;28;20215;-52
2022/08/16 10:54:26;;;;;;;5.93;4.50;;;27.50;99.90;;;;;;5108307;28;20258;-52
2022/08/16 10:57:04;;;;;;;4.82;4.15;;;27.60;99.90;;;;;;5109063;28;20668;-53
2022/08/16 10:59:41;;;;;;;5.53;4.13;;;27.50;99.90;;;;;;5102242;28;20246;-52
2022/08/16 11:02:24;;;;;;;5.00;3.75;;;27.50;99.90;;;;;;5103006;28;20576;-53
2022/08/16 11:05:15;;;;;;;5.22;3.42;;;27.60;99.90;;;;;;5109448;28;20299;-52
2022/08/16 11:07:45;;;;;;;4.18;3.88;;;27.70;99.90;;;;;;5110769;28;20348;-52
2022/08/16 11:10:23;;;;;;;3.60;2.92;;;27.60;99.90;;;;;;5113173;28;20290;-52
2022/08/16 11:13:17;;;;;;;6.22;3.67;;;27.70;99.90;;;;;;5113393;28;20231;-52
2022/08/16 11:16:07;;;;;;;3.95;3.53;;;27.90;99.90;;;;;;5113409;28;20747;-52
2022/08/16 11:18:56;;;;;;;4.38;3.97;;;27.90;99.90;;;;;;5113323;28;20668;-52
2022/08/16 11:21:41;;;;;;;4.22;3.83;;;27.90;99.90;;;;;;5112503;28;20233;-52
2022/08/16 11:24:29;;;;;;;4.57;3.65;;;27.90;99.90;;;;;;5112683;28;20736;-53
2022/08/16 11:27:12;;;;;;;4.40;4.00;;;27.90;99.90;;;;;;5107822;28;20265;-52
2022/08/16 11:29:52;;;;;;;7.32;4.20;;;27.90;99.90;;;;;;5106398;28;20207;-52
2022/08/16 11:32:25;;;;;;;5.43;3.42;;;27.90;99.90;;;;;;5109344;28;20323;-52
2022/08/16 11:35:00;;;;;;;4.55;4.00;;;28.00;99.90;;;;;;5112565;28;20215;-52
2022/08/16 11:37:43;;;;;;;5.20;3.90;;;28.00;99.90;;;;;;5111594;28;20238;-52
2022/08/16 11:40:37;;;;;;;4.53;3.75;;;28.10;99.90;;;;;;5110425;28;20281;-52
2022/08/16 11:43:11;;;;;;;4.72;4.05;;;28.20;99.90;;;;;;5111680;28;20309;-52
2022/08/16 11:45:39;;;;;;;5.25;4.60;;;28.10;99.90;;;;;;5111765;28;20204;-53
2022/08/16 11:48:12;;;;;;;5.13;4.28;;;28.20;99.90;;;;;;5112449;28;20672;-52
2022/08/16 11:50:42;;;;;;;7.05;4.53;;;28.20;99.90;;;;;;5112439;28;20260;-52
2022/08/16 11:53:11;;;;;;;4.72;4.28;;;28.20;99.90;;;;;;5112997;28;20269;-52
2022/08/16 11:55:42;;;;;;;4.85;4.45;;;28.20;99.90;;;;;;5111980;28;20294;-52
2022/08/16 11:58:12;;;;;;;5.45;4.03;;;28.20;99.90;;;;;;5112745;28;20211;-53
2022/08/16 12:00:44;;;;;;;4.95;4.45;;;28.20;99.90;;;;;;5113185;28;20218;-53
2022/08/16 12:03:20;;;;;;;5.45;4.53;;;28.10;99.90;;;;;;5112873;28;20226;-52
2022/08/16 12:06:09;;;;;;;5.78;3.88;;;28.10;99.90;;;;;;5112572;28;20668;-52
2022/08/16 12:08:51;;;;;;;5.35;4.60;;;28.10;99.90;;;;;;5112056;28;20216;-52
2022/08/16 12:11:20;;;;;;;5.85;4.18;;;28.20;99.90;;;;;;5112452;28;20227;-51
2022/08/16 12:13:49;;;;;;;6.20;4.57;;;28.30;99.90;;;;;;5112077;28;20199;-52
2022/08/16 12:16:19;;;;;;;6.22;3.65;;;28.40;99.90;;;;;;5112723;28;20210;-52
2022/08/16 12:18:49;;;;;;;6.97;4.25;;;28.40;99.90;;;;;;5104023;28;20298;-52
2022/08/16 12:21:17;;;;;;;7.65;4.78;;;28.50;99.90;;;;;;5110755;28;20231;-52
2022/08/16 12:23:46;;;;;;;6.43;4.57;;;28.40;99.90;;;;;;5111654;28;20223;-52
2022/08/16 12:26:16;;;;;;;4.93;4.32;;;28.40;99.90;;;;;;5112041;28;20204;-52
2022/08/16 12:28:44;;;;;;;5.78;4.05;;;28.40;99.90;;;;;;5111974;28;20260;-52
2022/08/16 12:31:24;;;;;;;7.28;4.40;;;28.50;99.90;;;;;;5110790;28;20232;-52
2022/08/16 12:33:54;;;;;;;5.53;4.15;;;28.70;99.90;;;;;;5101284;28;20203;-52
2022/08/16 12:36:25;;;;;;;5.60;4.00;;;28.80;99.30;;;;;;5111598;28;20207;-53
2022/08/16 12:38:57;;;;;;;5.38;4.15;;;28.80;99.60;;;;;;5104123;28;20199;-52
2022/08/16 12:41:26;;;;;;;5.05;4.20;;;28.90;99.90;;;;;;5111607;28;20273;-52
2022/08/16 12:43:54;;;;;;;5.47;3.92;;;29.00;99.90;;;;;;5112260;28;20220;-53
2022/08/16 12:46:27;;;;;;;4.20;3.47;;;28.90;98.50;;;;;;5111570;28;20310;-52
2022/08/16 12:48:59;;;;;;;6.63;4.20;;;28.90;99.40;;;;;;5111440;28;20286;-52
2022/08/16 12:51:33;;;;;;;4.43;4.03;;;29.10;99.00;;;;;;5110963;28;20276;-52
2022/08/16 12:54:22;;;;;;;5.38;4.07;;;29.20;97.30;;;;;;5111283;28;20212;-52
2022/08/16 12:56:50;;;;;;;4.00;3.65;;;29.10;98.00;;;;;;5111628;28;20204;-52
2022/08/16 12:59:20;;;;;;;4.45;4.05;;;29.20;98.20;;;;;;5111397;28;20885;-52
2022/08/16 13:01:52;;;;;;;5.35;3.60;;;29.20;98.40;;;;;;5110915;28;20292;-52
2022/08/16 13:04:27;;;;;;;5.15;3.90;;;29.30;97.40;;;;;;5111033;28;20226;-52
2022/08/16 13:07:01;;;;;;;4.15;3.50;;;29.30;97.50;;;;;;5098912;28;20204;-52
2022/08/16 13:09:40;;;;;;;6.28;3.90;;;29.30;97.40;;;;;;5103247;28;20260;-52
2022/08/16 13:12:18;;;;;;;4.20;3.55;;;29.50;96.80;;;;;;5111207;28;20227;-53
2022/08/16 13:14:47;;;;;;;4.78;3.70;;;29.60;97.10;;;;;;5111622;28;20252;-53
2022/08/16 13:17:20;;;;;;;4.05;3.67;;;29.50;94.80;;;;;;5109708;28;20591;-52
2022/08/16 13:19:52;;;;;;;5.55;3.70;;;29.70;95.90;;;;;;5111775;28;20227;-53
2022/08/16 13:22:40;;;;;;;4.03;3.40;;;29.80;96.40;;;;;;5110735;28;20310;-53
2022/08/16 13:25:12;;;;;;;4.00;3.70;;;29.90;96.50;;;;;;5111108;28;20315;-53